createdAt,value
2019-02-25T20:12:50.584Z,95.07
2019-02-25T20:16:28.095Z,90.80
2019-02-25T20:18:56.035Z,98.50
2019-02-25T20:21:27.211Z,96.57
2019-02-25T20:23:56.003Z,88.27
2019-02-25T20:26:25.265Z,83.20
2019-02-25T20:28:54.589Z,90.13
2019-02-25T20:31:23.010Z,92.73
2019-02-25T20:33:53.057Z,83.63
2019-02-25T20:36:46.509Z,84.83
2019-02-25T20:39:47.215Z,92.03
2019-02-25T20:42:21.466Z,87.97
2019-02-25T20:44:49.160Z,86.73
2019-02-25T20:47:19.191Z,91.20
2019-02-25T20:49:51.157Z,91.57
2019-02-25T20:52:20.222Z,89.97
2019-02-25T20:54:50.519Z,90.13
2019-02-25T20:57:19.961Z,86.53
2019-02-25T20:59:50.851Z,82.30
2019-02-25T21:02:21.123Z,91.80
2019-02-25T21:04:52.241Z,90.33
2019-02-25T21:07:21.710Z,83.27
2019-02-25T21:09:50.991Z,83.93
2019-02-25T21:12:20.300Z,70.07
2019-02-25T21:14:49.714Z,60.93
2019-02-25T21:17:19.117Z,70.83
2019-02-25T21:19:48.624Z,81.23
2019-02-25T21:22:17.976Z,62.27
2019-02-25T21:24:49.477Z,72.77
2019-02-25T21:27:18.278Z,69.87
2019-02-25T21:29:47.504Z,65.50
2019-02-25T21:32:17.456Z,60.70
2019-02-25T21:34:52.649Z,59.80
2019-02-25T21:37:21.364Z,47.60
2019-02-25T21:39:50.801Z,63.80
2019-02-25T21:42:23.043Z,53.00
2019-02-25T21:44:54.699Z,51.47
2019-02-25T21:47:24.213Z,54.67
2019-02-25T21:49:57.271Z,53.00
2019-02-25T21:52:25.919Z,52.93
2019-02-25T21:54:55.189Z,48.20
2019-02-25T21:57:24.501Z,59.83
2019-02-25T21:59:54.695Z,48.50
2019-02-25T22:02:24.852Z,63.03
2019-02-25T22:04:54.244Z,65.97
2019-02-25T22:07:24.985Z,61.03
2019-02-25T22:09:54.490Z,53.67
2019-02-25T22:12:23.798Z,46.63
2019-02-25T22:14:53.159Z,55.10
2019-02-25T22:17:24.556Z,56.17
2019-02-25T22:19:53.517Z,48.87
2019-02-25T22:22:26.203Z,50.27
2019-02-25T22:24:53.713Z,56.67
2019-02-25T22:27:23.125Z,43.37
2019-02-25T22:29:53.408Z,56.80
2019-02-25T22:32:22.640Z,55.83
2019-02-25T22:34:51.854Z,43.90
2019-02-25T22:37:22.766Z,49.03
2019-02-25T22:39:52.990Z,44.23
2019-02-25T22:42:25.289Z,48.97
2019-02-25T22:44:56.045Z,49.80
2019-02-25T22:47:25.537Z,48.73
2019-02-25T22:49:54.953Z,45.53
2019-02-25T22:52:26.270Z,48.90
2019-02-25T22:54:55.295Z,52.13
2019-02-25T22:57:25.683Z,53.63
2019-02-25T22:59:55.535Z,44.30
2019-02-25T23:02:27.324Z,48.20
2019-02-25T23:04:56.343Z,48.40
2019-02-25T23:07:26.901Z,50.83
2019-02-25T23:09:56.292Z,52.80
2019-02-25T23:12:27.225Z,50.23
2019-02-25T23:14:58.755Z,55.17
2019-02-25T23:17:31.078Z,58.07
2019-02-25T23:20:00.164Z,53.83
2019-02-25T23:22:30.279Z,49.30
2019-02-25T23:25:00.583Z,54.73
2019-02-25T23:27:32.257Z,52.40
2019-02-25T23:30:02.161Z,58.37
2019-02-25T23:32:31.888Z,60.67
2019-02-25T23:35:01.230Z,68.40
2019-02-25T23:37:30.700Z,61.40
2019-02-25T23:40:04.212Z,68.60
2019-02-25T23:42:33.010Z,69.57
2019-02-25T23:45:04.105Z,65.37
2019-02-25T23:47:35.371Z,65.87
2019-02-25T23:50:08.832Z,62.10
2019-02-25T23:52:38.139Z,56.40
2019-02-25T23:55:12.317Z,64.63
2019-02-25T23:57:41.290Z,61.73
